Terminal Aerodrome Forecast
Issued by NWS

Home | Current Version | Previous Version | Text Only | Print | Product List | Glossary Off
Versions: 1 2 3 4 5 6 7 8 9 10 11 12 13 14 15 16 17 18 19

556
FTUS43 KBIS 202026 AAB
TAFDIK
TAF AMD
KDIK 202026Z 2020/2118 13008KT P6SM BKN035
     FM202200 34010KT P6SM BKN040
     FM202300 01011KT P6SM BKN070
     FM210900 07009KT P6SM BKN060
     FM211500 09010KT P6SM OVC030=

USA.gov is the U.S. government's official web portal to all federal, state and local government web resources and services.